Time;durP1;ratioP1;P1;durP2;ratioP2;P2;SDS_P1;SDS_P2;PMS_P1;PMS_P2;Temp;Humidity;BMP_temperature;BMP_pressure;BME280_temperature;BME280_humidity;BME280_pressure;Samples;Min_cycle;Max_cycle;Signal;HPM_P1;HPM_P2
2021/06/04 00:02:21;;;;;;;0.37;0.27;;;;;;;20.71;55.57;99262.94;5151161;27;41553;-80
2021/06/04 00:04:48;;;;;;;0.30;0.30;;;;;;;20.80;55.64;99278.16;5129328;27;39928;-80
2021/06/04 00:07:15;;;;;;;0.20;0.20;;;;;;;20.80;55.81;99283.56;5133344;27;41854;-81
2021/06/04 00:09:42;;;;;;;0.47;0.47;;;;;;;20.78;55.94;99283.69;5116876;27;41499;-80
2021/06/04 00:12:10;;;;;;;0.30;0.30;;;;;;;20.64;55.68;99267.22;5127375;27;41165;-80
2021/06/04 00:14:41;;;;;;;1.80;1.10;;;;;;;20.52;56.15;99238.81;5149970;27;39700;-81
2021/06/04 00:17:13;;;;;;;0.40;0.40;;;;;;;20.74;55.92;99292.25;5134315;27;41019;-80
2021/06/04 00:19:40;;;;;;;0.20;0.20;;;;;;;20.72;55.69;99280.78;5149397;27;43445;-80
2021/06/04 00:22:11;;;;;;;0.20;0.20;;;;;;;20.72;55.84;99286.16;5133087;27;41225;-81
2021/06/04 00:24:41;;;;;;;0.33;0.33;;;;;;;20.71;56.01;99281.78;5117080;27;40907;-81
2021/06/04 00:27:08;;;;;;;0.40;0.40;;;;;;;20.70;56.19;99293.53;5123888;27;40570;-80
2021/06/04 00:29:37;;;;;;;0.30;0.30;;;;;;;20.69;56.01;99286.44;5151332;27;42706;-81
2021/06/04 00:32:04;;;;;;;0.57;0.57;;;;;;;20.70;56.71;99285.47;5150193;27;42748;-80
2021/06/04 00:34:33;;;;;;;0.47;0.47;;;;;;;20.66;56.39;99286.75;5150272;27;39978;-80
2021/06/04 00:37:00;;;;;;;0.77;0.77;;;;;;;20.69;56.27;99289.13;5132559;27;41184;-80
2021/06/04 00:39:30;;;;;;;0.27;0.23;;;;;;;20.61;56.38;99283.66;5133920;27;42681;-80
2021/06/04 00:42:00;;;;;;;0.20;0.20;;;;;;;20.66;56.74;99289.44;5130473;27;41354;-80
2021/06/04 00:44:33;;;;;;;0.43;0.43;;;;;;;20.62;57.86;99283.53;5133138;27;40752;-80
2021/06/04 00:47:02;;;;;;;0.40;0.40;;;;;;;20.59;57.42;99294.56;5115775;27;41873;-81
2021/06/04 00:49:29;;;;;;;0.40;0.40;;;;;;;20.57;57.36;99287.63;5116969;27;41772;-81
2021/06/04 00:52:06;;;;;;;0.30;0.30;;;;;;;20.53;57.44;99283.53;5146905;27;42230;-81
2021/06/04 00:54:34;;;;;;;0.20;0.20;;;;;;;20.53;57.62;99280.84;5151639;27;38845;-80
2021/06/04 00:57:03;;;;;;;0.67;0.67;;;;;;;20.50;57.55;99281.19;5133025;27;41085;-80
2021/06/04 00:59:37;;;;;;;0.33;0.33;;;;;;;20.47;57.43;99286.84;5149314;27;42481;-80
2021/06/04 01:02:08;;;;;;;0.40;0.40;;;;;;;20.43;57.50;99287.13;5121128;27;42271;-80
2021/06/04 01:04:37;;;;;;;0.07;0.07;;;;;;;20.33;57.69;99275.53;5132059;27;39872;-80
2021/06/04 01:07:11;;;;;;;0.77;0.77;;;;;;;20.36;57.82;99280.66;5116591;27;40782;-80
2021/06/04 01:09:53;;;;;;;0.10;0.10;;;;;;;20.32;57.74;99279.22;5136987;27;41561;-80
2021/06/04 01:12:52;;;;;;;0.20;0.20;;;;;;;20.38;57.57;99284.06;5149483;27;40854;-81
2021/06/04 01:15:35;;;;;;;0.50;0.50;;;;;;;20.37;57.19;99285.03;5065634;28;40970;-81
2021/06/04 01:18:07;;;;;;;0.23;0.23;;;;;;;20.35;57.14;99287.03;5120645;27;40829;-80
2021/06/04 01:20:38;;;;;;;0.50;0.50;;;;;;;20.34;57.41;99290.69;5147218;27;42616;-81
2021/06/04 01:23:31;;;;;;;0.63;0.63;;;;;;;20.31;57.72;99282.91;5150233;27;42991;-81
2021/06/04 01:26:06;;;;;;;0.37;0.37;;;;;;;20.22;58.07;99270.34;5132485;27;39877;-81
2021/06/04 01:28:38;;;;;;;0.30;0.30;;;;;;;20.26;58.31;99279.81;5150180;27;42002;-80
2021/06/04 01:31:12;;;;;;;0.20;0.20;;;;;;;20.24;58.39;99287.19;5132227;27;42759;-81
2021/06/04 01:33:45;;;;;;;0.20;0.20;;;;;;;20.25;58.60;99280.81;5133739;27;41312;-80
2021/06/04 01:36:17;;;;;;;0.20;0.20;;;;;;;20.18;58.44;99270.75;5125808;27;39238;-81
2021/06/04 01:38:47;;;;;;;0.30;0.30;;;;;;;20.17;58.87;99269.91;5116048;27;40460;-80
2021/06/04 01:41:20;;;;;;;0.70;0.70;;;;;;;20.17;58.76;99278.00;5116216;27;42357;-81
2021/06/04 01:43:58;;;;;;;0.40;0.40;;;;;;;20.19;58.97;99278.69;5144603;27;42837;-80
2021/06/04 01:46:31;;;;;;;0.33;0.33;;;;;;;20.16;58.83;99284.34;5149802;27;39867;-80
2021/06/04 01:49:04;;;;;;;0.50;0.50;;;;;;;20.13;58.93;99284.66;5149305;27;41548;-81
2021/06/04 01:51:37;;;;;;;0.30;0.30;;;;;;;20.15;59.00;99290.75;5126370;27;42544;-80
2021/06/04 01:54:15;;;;;;;0.30;0.30;;;;;;;20.13;58.97;99290.03;5131006;27;42909;-81
2021/06/04 01:56:49;;;;;;;0.17;0.17;;;;;;;20.13;58.72;99286.50;5115856;27;38956;-80
2021/06/04 01:59:26;;;;;;;0.40;0.40;;;;;;;19.93;58.91;99253.44;5145711;27;41621;-80
2021/06/04 02:02:04;;;;;;;0.40;0.40;;;;;;;20.11;58.68;99289.34;5132360;27;41976;-80
2021/06/04 02:04:36;;;;;;;0.70;0.70;;;;;;;20.13;58.85;99292.75;5131905;27;42578;-81
2021/06/04 02:07:05;;;;;;;0.30;0.30;;;;;;;20.10;59.05;99284.97;5127316;27;39578;-81
2021/06/04 02:09:32;;;;;;;0.20;0.20;;;;;;;19.99;58.86;99261.78;5131394;27;41734;-81
2021/06/04 02:12:12;;;;;;;0.20;0.20;;;;;;;20.07;58.94;99269.09;5131106;27;42663;-81
2021/06/04 02:14:49;;;;;;;0.20;0.20;;;;;;;20.06;58.94;99278.16;5128532;27;41516;-80
2021/06/04 02:17:35;;;;;;;0.20;0.20;;;;;;;19.98;58.88;99261.91;5152751;27;39981;-79
2021/06/04 02:20:18;;;;;;;0.20;0.20;;;;;;;20.00;59.08;99265.31;5154605;27;42438;-80
2021/06/04 02:23:04;;;;;;;0.20;0.20;;;;;;;19.93;59.37;99265.03;5143164;27;43428;-81
2021/06/04 02:25:53;;;;;;;0.27;0.27;;;;;;;19.92;59.82;99267.88;5123607;27;42253;-80
2021/06/04 02:28:29;;;;;;;0.40;0.40;;;;;;;19.92;59.75;99270.56;5122774;27;40335;-81
2021/06/04 02:31:10;;;;;;;0.30;0.30;;;;;;;19.89;59.76;99270.88;5120998;27;40515;-81
2021/06/04 02:33:42;;;;;;;0.40;0.40;;;;;;;19.82;59.60;99256.28;5136545;27;41538;-80
2021/06/04 02:36:14;;;;;;;0.37;0.37;;;;;;;19.82;59.71;99267.03;5153758;27;42194;-80
2021/06/04 02:38:46;;;;;;;0.40;0.40;;;;;;;19.85;59.57;99269.44;5148482;27;40684;-80
2021/06/04 02:41:18;;;;;;;0.40;0.40;;;;;;;19.72;59.67;99246.41;5143924;27;41811;-80
2021/06/04 02:43:51;;;;;;;2.23;0.63;;;;;;;19.82;59.65;99270.56;5134390;27;42666;-80
2021/06/04 02:46:22;;;;;;;0.40;0.40;;;;;;;19.76;59.50;99259.56;5118898;27;41337;-80
2021/06/04 02:48:51;;;;;;;0.30;0.30;;;;;;;19.80;59.86;99271.72;5148883;27;38963;-81
2021/06/04 02:51:28;;;;;;;0.30;0.30;;;;;;;19.75;59.62;99268.63;5153670;27;41410;-80
2021/06/04 02:53:58;;;;;;;0.20;0.20;;;;;;;19.79;59.93;99275.38;5152354;27;42412;-80
2021/06/04 02:56:30;;;;;;;0.50;0.50;;;;;;;19.77;59.72;99272.03;5152020;27;42002;-80
2021/06/04 02:59:06;;;;;;;0.40;0.40;;;;;;;19.77;59.64;99277.41;5135848;27;40979;-81
2021/06/04 03:01:38;;;;;;;0.50;0.50;;;;;;;19.75;59.91;99271.31;5118581;27;41029;-80
2021/06/04 03:04:10;;;;;;;0.20;0.20;;;;;;;19.70;59.84;99272.56;5133515;27;43479;-80
2021/06/04 03:06:48;;;;;;;0.40;0.40;;;;;;;19.73;59.96;99280.34;5137353;27;42653;-80
2021/06/04 03:09:20;;;;;;;0.27;0.27;;;;;;;19.66;60.10;99265.78;5151215;27;40747;-80
2021/06/04 03:11:51;;;;;;;0.50;0.50;;;;;;;19.69;60.21;99281.63;5135863;27;40792;-80
2021/06/04 03:14:20;;;;;;;0.70;0.70;;;;;;;19.69;59.80;99281.63;5135112;27;42775;-80
2021/06/04 03:16:50;;;;;;;0.20;0.20;;;;;;;19.64;60.24;99273.16;5150991;27;41941;-80
2021/06/04 03:19:20;;;;;;;0.20;0.20;;;;;;;19.68;59.91;99295.19;5150650;27;40301;-80
2021/06/04 03:21:53;;;;;;;0.30;0.30;;;;;;;19.67;59.85;99280.91;5151748;27;42244;-80
2021/06/04 03:24:26;;;;;;;0.63;0.63;;;;;;;19.67;60.09;99282.75;5152547;27;42439;-80
2021/06/04 03:26:55;;;;;;;0.30;0.30;;;;;;;19.66;59.93;99287.28;5122681;27;41298;-80
2021/06/04 03:29:27;;;;;;;0.57;0.57;;;;;;;19.66;60.38;99294.50;5117270;27;38998;-80
2021/06/04 03:31:58;;;;;;;0.20;0.20;;;;;;;19.63;60.77;99289.44;5117968;27;40619;-80
2021/06/04 03:34:27;;;;;;;0.30;0.30;;;;;;;19.65;60.53;99298.19;5135182;27;43484;-80
2021/06/04 03:36:57;;;;;;;0.20;0.20;;;;;;;19.64;60.40;99297.34;5135149;27;42296;-80
2021/06/04 03:39:28;;;;;;;0.20;0.20;;;;;;;19.65;60.72;99296.38;5151253;27;39939;-81
2021/06/04 03:41:57;;;;;;;0.30;0.30;;;;;;;19.67;60.39;99296.19;5151243;27;42249;-80
2021/06/04 03:44:28;;;;;;;0.30;0.30;;;;;;;19.56;60.38;99275.69;5150142;27;42413;-80
2021/06/04 03:46:58;;;;;;;0.37;0.37;;;;;;;19.57;60.62;99284.59;5133851;27;42929;-80
2021/06/04 03:49:27;;;;;;;0.30;0.30;;;;;;;19.67;60.37;99294.34;5132357;27;39904;-80
2021/06/04 03:51:57;;;;;;;0.30;0.30;;;;;;;19.70;60.58;99299.44;5151838;27;42403;-80
2021/06/04 03:54:31;;;;;;;0.30;0.30;;;;;;;19.70;60.89;99299.44;5133636;27;42913;-80
2021/06/04 03:56:59;;;;;;;0.37;0.37;;;;;;;19.55;61.48;99274.00;5151294;27;42655;-81
2021/06/04 03:59:28;;;;;;;0.40;0.40;;;;;;;19.69;61.29;99296.91;5151018;27;40608;-81
2021/06/04 04:01:58;;;;;;;0.40;0.40;;;;;;;19.68;61.82;99295.19;5152159;27;42401;-80
2021/06/04 04:04:26;;;;;;;0.20;0.20;;;;;;;19.65;61.67;99300.88;5116412;27;42530;-81
2021/06/04 04:06:54;;;;;;;0.90;0.90;;;;;;;19.58;61.60;99292.53;5134393;27;42722;-80
2021/06/04 04:09:21;;;;;;;0.93;0.30;;;;;;;19.63;61.55;99298.34;5151759;27;40590;-80
2021/06/04 04:11:51;;;;;;;0.27;0.27;;;;;;;19.65;61.86;99299.06;5134486;27;41628;-81
2021/06/04 04:14:20;;;;;;;0.50;0.50;;;;;;;19.61;61.80;99305.69;5151685;27;42698;-80
2021/06/04 04:16:48;;;;;;;0.40;0.40;;;;;;;19.62;61.74;99307.38;5128638;27;41003;-80
2021/06/04 04:19:19;;;;;;;0.47;0.47;;;;;;;19.62;62.24;99307.38;5133870;27;40217;-80
2021/06/04 04:21:47;;;;;;;0.40;0.40;;;;;;;19.62;62.08;99307.38;5150139;27;41771;-80
2021/06/04 04:24:17;;;;;;;0.43;0.40;;;;;;;19.60;62.00;99314.75;5151574;27;42222;-79
2021/06/04 04:26:45;;;;;;;0.30;0.30;;;;;;;19.48;62.42;99288.97;5151254;27;42269;-80
2021/06/04 04:29:13;;;;;;;0.40;0.40;;;;;;;19.51;62.30;99299.47;5150860;27;39892;-80
2021/06/04 04:31:42;;;;;;;0.23;0.23;;;;;;;19.59;62.23;99323.78;5141572;27;40490;-80
2021/06/04 04:34:12;;;;;;;0.30;0.30;;;;;;;19.60;62.43;99321.94;5133049;27;41929;-80
2021/06/04 04:36:43;;;;;;;0.37;0.37;;;;;;;19.59;62.35;99323.78;5151405;27;42365;-80
2021/06/04 04:39:15;;;;;;;0.83;0.60;;;;;;;19.61;61.99;99329.88;5132741;27;40927;-80
2021/06/04 04:41:44;;;;;;;0.30;0.30;;;;;;;19.55;62.41;99316.13;5132775;27;42052;-80
2021/06/04 04:44:12;;;;;;;0.27;0.27;;;;;;;19.63;62.34;99325.22;5132766;27;42680;-80
2021/06/04 04:46:39;;;;;;;0.30;0.30;;;;;;;19.64;62.02;99315.31;5150510;27;42288;-80
2021/06/04 04:49:06;;;;;;;0.30;0.30;;;;;;;19.76;62.14;99332.13;5132922;27;39256;-81
2021/06/04 04:51:36;;;;;;;0.20;0.20;;;;;;;19.72;62.42;99318.97;5152535;27;41738;-81
2021/06/04 04:54:03;;;;;;;0.27;0.27;;;;;;;19.84;62.23;99318.81;5139694;27;42677;-80
2021/06/04 04:56:31;;;;;;;0.63;0.63;;;;;;;19.89;62.42;99313.88;5116725;27;42246;-80
2021/06/04 04:58:58;;;;;;;0.40;0.40;;;;;;;20.04;62.26;99329.38;5132917;27;39205;-80
2021/06/04 05:01:25;;;;;;;0.60;0.60;;;;;;;20.11;62.23;99326.13;5150438;27;41425;-81
2021/06/04 05:03:53;;;;;;;1.63;0.93;;;;;;;20.07;62.55;99312.97;5133305;27;41664;-80
2021/06/04 05:06:20;;;;;;;0.30;0.30;;;;;;;20.10;62.66;99306.47;5132540;27;41252;-80
2021/06/04 05:08:48;;;;;;;0.40;0.40;;;;;;;20.34;63.01;99336.41;5150825;27;40591;-80
2021/06/04 05:11:16;;;;;;;0.97;0.97;;;;;;;20.35;62.96;99322.00;5115882;27;40749;-80
2021/06/04 05:13:44;;;;;;;0.60;0.60;;;;;;;20.47;62.64;99313.75;5131661;27;43504;-80
2021/06/04 05:16:11;;;;;;;0.50;0.50;;;;;;;20.70;62.58;99331.22;5126915;27;42334;-80
2021/06/04 05:18:38;;;;;;;0.60;0.60;;;;;;;20.84;62.13;99332.56;5149178;27;39773;-80
2021/06/04 05:21:10;;;;;;;0.70;0.70;;;;;;;20.97;62.20;99333.91;5133081;27;40547;-80
2021/06/04 05:23:37;;;;;;;0.93;0.93;;;;;;;21.15;62.05;99342.88;5150651;27;43269;-81
2021/06/04 05:26:06;;;;;;;0.43;0.40;;;;;;;21.29;62.05;99335.31;5133126;27;42249;-80
2021/06/04 05:28:34;;;;;;;0.57;0.33;;;;;;;21.40;61.29;99345.84;5116228;27;40870;-80
2021/06/04 05:31:06;;;;;;;0.70;0.70;;;;;;;21.49;61.19;99344.97;5148783;27;41852;-81
2021/06/04 05:33:35;;;;;;;0.43;0.37;;;;;;;21.63;60.41;99341.75;5150753;27;43428;-80
2021/06/04 05:36:05;;;;;;;0.40;0.40;;;;;;;21.78;60.05;99345.56;5148392;27;42095;-80
2021/06/04 05:38:32;;;;;;;0.50;0.50;;;;;;;21.88;59.85;99335.53;5150410;27;39911;-81
2021/06/04 05:41:00;;;;;;;0.50;0.50;;;;;;;22.09;59.47;99358.66;5132999;27;40663;-80
2021/06/04 05:43:32;;;;;;;0.83;0.83;;;;;;;22.22;59.45;99353.72;5149869;27;43153;-80
2021/06/04 05:46:02;;;;;;;1.00;0.80;;;;;;;22.31;58.97;99344.66;5115574;27;40904;-81
2021/06/04 05:48:29;;;;;;;0.30;0.30;;;;;;;22.36;59.03;99347.75;5150494;27;39107;-80
2021/06/04 05:51:01;;;;;;;0.60;0.60;;;;;;;22.56;58.59;99359.16;5132666;27;40720;-80
2021/06/04 05:53:30;;;;;;;1.33;1.23;;;;;;;22.57;58.90;99341.97;5150149;27;41846;-81
2021/06/04 05:55:59;;;;;;;0.30;0.30;;;;;;;22.76;58.80;99368.75;5150278;27;43047;-80
2021/06/04 05:58:30;;;;;;;0.73;0.73;;;;;;;22.73;58.23;99352.00;5114956;27;39019;-80
2021/06/04 06:01:01;;;;;;;0.47;0.47;;;;;;;22.90;58.02;99365.44;5115392;27;40858;-81
2021/06/04 06:03:30;;;;;;;0.70;0.70;;;;;;;22.99;58.06;99369.06;5131883;27;43413;-79
2021/06/04 06:05:59;;;;;;;1.00;1.00;;;;;;;23.08;57.95;99367.22;5139690;27;41352;-81
2021/06/04 06:08:26;;;;;;;0.70;0.70;;;;;;;23.16;57.79;99370.78;5146555;27;39947;-81
2021/06/04 06:10:54;;;;;;;0.40;0.40;;;;;;;23.18;57.51;99363.38;5150629;27;41799;-80
2021/06/04 06:13:23;;;;;;;0.30;0.30;;;;;;;23.26;57.71;99366.09;5131686;27;41770;-81
2021/06/04 06:15:52;;;;;;;0.60;0.60;;;;;;;23.33;57.35;99373.56;5114859;27;41404;-81
2021/06/04 06:18:20;;;;;;;0.30;0.30;;;;;;;23.41;56.93;99373.56;5117632;27;40108;-81
2021/06/04 06:20:47;;;;;;;0.70;0.70;;;;;;;23.51;57.16;99371.59;5152995;27;42437;-80
2021/06/04 06:23:20;;;;;;;0.50;0.50;;;;;;;23.63;57.02;99372.97;5152273;27;42573;-81
2021/06/04 06:25:50;;;;;;;0.60;0.60;;;;;;;23.73;57.22;99376.38;5152291;27;42143;-81
2021/06/04 06:28:21;;;;;;;0.90;0.90;;;;;;;23.83;56.67;99379.78;5151818;27;39399;-81
2021/06/04 06:30:49;;;;;;;0.60;0.60;;;;;;;23.83;56.55;99368.09;5140332;27;40976;-81
2021/06/04 06:33:18;;;;;;;0.40;0.40;;;;;;;24.03;56.72;99387.56;5134500;27;42804;-81
2021/06/04 06:35:48;;;;;;;0.90;0.87;;;;;;;24.05;56.38;99378.25;5153322;27;42956;-81
2021/06/04 06:38:16;;;;;;;0.50;0.50;;;;;;;24.01;56.45;99360.66;5152885;27;39099;-82
2021/06/04 06:40:45;;;;;;;0.47;0.47;;;;;;;24.32;55.69;99396.06;5152461;27;41824;-80
2021/06/04 06:43:13;;;;;;;0.57;0.57;;;;;;;24.41;55.72;99386.91;5134780;27;41426;-80
2021/06/04 06:45:41;;;;;;;0.60;0.60;;;;;;;24.52;55.62;99393.81;5144186;27;42126;-81
2021/06/04 06:48:09;;;;;;;0.63;0.63;;;;;;;24.56;55.16;99387.06;5135124;27;39991;-82
2021/06/04 06:50:40;;;;;;;0.80;0.80;;;;;;;24.70;54.68;99389.91;5154047;27;42203;-81
2021/06/04 06:53:10;;;;;;;0.50;0.50;;;;;;;24.81;54.63;99385.13;5152443;27;42574;-81
2021/06/04 06:55:39;;;;;;;0.70;0.70;;;;;;;24.93;54.23;99398.16;5151946;27;43135;-81
2021/06/04 06:58:07;;;;;;;0.60;0.60;;;;;;;25.04;54.09;99402.34;5152305;27;39948;-80
2021/06/04 07:00:37;;;;;;;0.90;0.90;;;;;;;25.13;53.54;99404.00;5148338;27;40791;-81
2021/06/04 07:03:05;;;;;;;0.53;0.53;;;;;;;25.24;53.61;99408.19;5135442;27;42529;-80
2021/06/04 07:05:34;;;;;;;0.93;0.93;;;;;;;25.33;53.42;99410.72;5134343;27;42278;-81
2021/06/04 07:08:04;;;;;;;1.17;1.13;;;;;;;25.46;52.57;99414.72;5134921;27;40968;-81
2021/06/04 07:10:32;;;;;;;0.50;0.50;;;;;;;25.54;52.46;99415.53;5117517;27;41377;-81
2021/06/04 07:13:01;;;;;;;0.67;0.67;;;;;;;25.58;51.69;99410.59;5153031;27;42806;-81
2021/06/04 07:15:30;;;;;;;0.77;0.60;;;;;;;25.68;52.25;99416.66;5135944;27;41236;-81
2021/06/04 07:17:59;;;;;;;1.03;1.03;;;;;;;25.70;52.24;99411.91;5134696;27;40228;-80
2021/06/04 07:20:28;;;;;;;0.77;0.77;;;;;;;25.77;51.72;99421.00;5152078;27;42481;-80
2021/06/04 07:22:56;;;;;;;0.53;0.53;;;;;;;25.72;51.56;99412.56;5152610;27;42801;-81
2021/06/04 07:25:27;;;;;;;0.70;0.70;;;;;;;25.84;51.87;99421.16;5151644;27;42578;-81
2021/06/04 07:27:54;;;;;;;0.50;0.50;;;;;;;25.92;51.41;99426.50;5134140;27;39034;-80
2021/06/04 07:30:24;;;;;;;0.73;0.73;;;;;;;26.03;51.47;99431.53;5134206;27;40797;-81
2021/06/04 07:32:52;;;;;;;0.83;0.83;;;;;;;26.16;51.61;99430.91;5151959;27;42008;-81
2021/06/04 07:35:21;;;;;;;0.60;0.60;;;;;;;26.29;50.76;99432.03;5152316;27;42989;-81
2021/06/04 07:37:48;;;;;;;0.40;0.40;;;;;;;26.42;49.96;99436.84;5152426;27;40547;-81
2021/06/04 07:40:19;;;;;;;0.57;0.57;;;;;;;26.58;50.07;99436.69;5134086;27;40673;-81
2021/06/04 07:42:50;;;;;;;0.60;0.60;;;;;;;26.73;49.57;99434.84;5152140;27;42315;-81
2021/06/04 07:45:19;;;;;;;0.43;0.43;;;;;;;26.92;48.99;99443.50;5135261;27;42364;-80
2021/06/04 07:47:46;;;;;;;0.70;0.70;;;;;;;27.03;47.71;99445.78;5135176;27;40150;-81
2021/06/04 07:50:14;;;;;;;0.80;0.80;;;;;;;27.14;47.21;99453.47;5151638;27;40752;-81
2021/06/04 07:52:42;;;;;;;0.50;0.50;;;;;;;27.27;47.47;99441.94;5152382;27;42676;-81
2021/06/04 07:55:11;;;;;;;0.77;0.77;;;;;;;27.50;46.61;99443.50;5150813;27;42194;-81
2021/06/04 07:57:39;;;;;;;1.03;0.77;;;;;;;27.70;46.89;99432.88;5151541;27;41052;-81
2021/06/04 08:00:14;;;;;;;1.50;1.30;;;;;;;28.22;46.27;99448.13;5116727;27;41544;-81
2021/06/04 08:02:41;;;;;;;0.67;0.67;;;;;;;28.67;45.94;99446.88;5129607;27;42794;-80
2021/06/04 08:05:10;;;;;;;1.13;1.03;;;;;;;29.12;44.91;99450.16;5133760;27;41368;-81
2021/06/04 08:07:37;;;;;;;0.70;0.70;;;;;;;29.50;44.83;99454.19;5137387;27;38945;-82
2021/06/04 08:10:06;;;;;;;0.80;0.70;;;;;;;30.02;43.95;99451.88;5133160;27;41740;-81
2021/06/04 08:12:33;;;;;;;0.80;0.80;;;;;;;30.39;42.53;99454.03;5116457;27;43039;-81
2021/06/04 08:15:04;;;;;;;0.70;0.70;;;;;;;30.73;41.80;99461.22;5136903;27;41720;-81
2021/06/04 08:17:32;;;;;;;0.93;0.93;;;;;;;31.20;41.38;99468.34;5151072;27;38897;-81
2021/06/04 08:19:59;;;;;;;0.77;0.77;;;;;;;31.57;40.79;99480.44;5149531;27;41824;-81
2021/06/04 08:22:27;;;;;;;1.10;1.10;;;;;;;31.71;39.95;99471.16;5142281;27;41920;-82
2021/06/04 08:24:54;;;;;;;0.80;0.80;;;;;;;31.90;39.61;99468.56;5116401;27;42060;-82
2021/06/04 08:27:21;;;;;;;0.63;0.63;;;;;;;32.10;39.80;99455.56;5133244;27;38940;-81
2021/06/04 08:29:48;;;;;;;1.23;1.23;;;;;;;32.30;38.76;99471.91;5132489;27;41878;-81
2021/06/04 08:32:16;;;;;;;0.80;0.80;;;;;;;32.35;38.22;99475.69;5150663;27;43186;-81
2021/06/04 08:34:45;;;;;;;0.80;0.80;;;;;;;32.39;38.25;99465.94;5151634;27;42230;-81
2021/06/04 08:37:12;;;;;;;0.60;0.60;;;;;;;32.43;38.22;99464.44;5146710;27;39090;-81
2021/06/04 08:39:43;;;;;;;1.00;0.90;;;;;;;32.42;37.76;99462.75;5132696;27;41692;-81
2021/06/04 08:42:38;;;;;;;2.20;1.07;;;;;;;32.49;37.98;99451.75;5132007;27;42800;-81
2021/06/04 08:45:32;;;;;;;0.60;0.57;;;;;;;32.76;37.39;99461.44;5133107;27;42251;-82
2021/06/04 08:48:09;;;;;;;1.00;1.00;;;;;;;32.88;37.40;99445.13;5108952;27;40980;-82
2021/06/04 08:50:47;;;;;;;0.60;0.60;;;;;;;33.10;37.82;99432.63;5096178;27;40732;-82
2021/06/04 08:53:21;;;;;;;1.30;1.20;;;;;;;33.43;36.51;99448.75;5128785;27;42750;-81
2021/06/04 08:55:57;;;;;;;0.77;0.77;;;;;;;33.55;36.44;99448.84;5114149;27;42944;-82
2021/06/04 08:58:40;;;;;;;0.80;0.80;;;;;;;34.06;36.23;99458.53;5116167;27;38997;-81
2021/06/04 09:01:13;;;;;;;0.97;0.83;;;;;;;34.96;34.04;99472.19;5129699;27;42370;-81
2021/06/04 09:03:45;;;;;;;0.83;0.83;;;;;;;36.22;32.60;99486.03;5129037;27;42746;-80
2021/06/04 09:06:25;;;;;;;0.77;0.77;;;;;;;36.80;31.26;99489.56;5128191;27;41358;-82
2021/06/04 09:08:53;;;;;;;0.70;0.70;;;;;;;37.96;28.77;99496.78;5131942;27;39939;-81
2021/06/04 09:11:28;;;;;;;0.80;0.80;;;;;;;39.52;27.65;99501.28;5099335;27;20236;-81
2021/06/04 09:13:55;;;;;;;1.47;1.37;;;;;;;40.79;25.72;99508.13;5150106;27;42750;-81
2021/06/04 09:16:30;;;;;;;1.07;1.07;;;;;;;41.99;23.70;99514.88;5130986;27;42007;-81
2021/06/04 09:19:03;;;;;;;0.90;0.90;;;;;;;42.60;22.83;99521.75;5150096;27;39680;-82
2021/06/04 09:21:34;;;;;;;0.88;0.88;;;;;;;43.02;22.85;99516.72;5150425;27;42438;-82
2021/06/04 09:24:07;;;;;;;0.90;0.90;;;;;;;43.64;21.54;99519.47;5132872;27;42414;-81
2021/06/04 09:26:35;;;;;;;0.85;0.85;;;;;;;44.55;21.46;99517.41;5151102;27;41943;-81
2021/06/04 09:29:29;;;;;;;0.85;0.75;;;;;;;45.69;19.87;99525.22;5149266;27;39811;-81
2021/06/04 09:31:59;;;;;;;1.38;1.10;;;;;;;46.42;19.74;99510.22;5102976;27;40799;-81
2021/06/04 09:34:34;;;;;;;0.85;0.85;;;;;;;46.58;19.23;99501.47;5131951;27;43191;-81
2021/06/04 09:37:06;;;;;;;0.50;0.50;;;;;;;45.72;18.84;99501.41;5131323;27;41162;-81
2021/06/04 09:39:36;;;;;;;0.77;0.77;;;;;;;44.03;20.83;99490.50;5115586;27;39735;-82
2021/06/04 09:42:17;;;;;;;0.80;0.80;;;;;;;43.67;21.17;99485.38;5115138;27;40521;-82
2021/06/04 09:44:53;;;;;;;0.60;0.60;;;;;;;44.72;20.22;99483.34;5140324;27;42416;-81
2021/06/04 09:47:28;;;;;;;0.70;0.70;;;;;;;45.99;19.30;99494.97;5150771;27;42191;-81
2021/06/04 09:49:56;;;;;;;0.60;0.60;;;;;;;46.70;18.18;99490.53;5148915;27;40112;-81
2021/06/04 09:52:33;;;;;;;0.70;0.70;;;;;;;47.61;17.96;99493.69;5150925;27;41302;-81
2021/06/04 09:55:30;;;;;;;0.60;0.60;;;;;;;48.45;18.00;99487.81;5145905;27;41829;-82
2021/06/04 09:58:06;;;;;;;0.60;0.60;;;;;;;48.76;17.54;99481.97;5118584;27;41391;-81
2021/06/04 10:00:36;;;;;;;2.13;1.35;;;;;;;47.91;18.27;99466.72;5154025;27;39678;-81
2021/06/04 10:03:15;;;;;;;0.63;0.63;;;;;;;46.94;19.68;99470.56;5152162;27;43104;-83
2021/06/04 10:05:42;;;;;;;1.08;0.98;;;;;;;45.62;20.94;99460.47;5153121;27;42825;-80
2021/06/04 10:08:24;;;;;;;0.82;0.82;;;;;;;44.39;21.72;99458.16;5152164;27;43071;-81
2021/06/04 10:11:05;;;;;;;1.00;1.00;;;;;;;43.31;22.33;99448.66;5152812;27;40048;-83
2021/06/04 10:13:41;;;;;;;0.90;0.90;;;;;;;42.40;22.96;99434.75;5130487;27;41734;-82
2021/06/04 10:19:44;;;;;;;0.70;0.70;;;;;;;41.50;23.57;99413.47;5092700;28;42730;-81
2021/06/04 10:22:17;;;;;;;0.88;0.88;;;;;;;41.01;23.84;99415.28;5142722;27;40755;-82
2021/06/04 10:24:48;;;;;;;0.60;0.60;;;;;;;40.50;25.54;99398.66;5152465;27;42231;-80
2021/06/04 10:27:19;;;;;;;0.80;0.80;;;;;;;39.95;25.58;99386.34;5118343;27;41691;-81
2021/06/04 10:29:59;;;;;;;0.63;0.63;;;;;;;39.43;25.70;99397.56;5135328;27;40856;-81
2021/06/04 10:32:32;;;;;;;0.63;0.63;;;;;;;39.12;27.14;99377.16;5136925;27;40897;-81
2021/06/04 10:35:07;;;;;;;0.80;0.80;;;;;;;39.25;27.50;99379.44;5152038;27;41023;-81
2021/06/04 10:37:39;;;;;;;0.70;0.70;;;;;;;39.30;26.14;99373.09;5153700;27;42459;-80
2021/06/04 10:40:16;;;;;;;0.80;0.80;;;;;;;39.38;26.00;99387.25;5152857;27;42216;-82
2021/06/04 10:43:00;;;;;;;0.63;0.63;;;;;;;39.46;26.99;99383.97;5137295;27;39892;-80
2021/06/04 10:45:33;;;;;;;0.85;0.85;;;;;;;39.25;27.37;99370.28;5152758;27;42436;-80
2021/06/04 10:48:27;;;;;;;0.80;0.80;;;;;;;39.25;26.35;99379.44;5152801;27;41220;-83
2021/06/04 10:51:02;;;;;;;0.50;0.50;;;;;;;39.06;25.93;99375.47;5152980;27;41759;-82
2021/06/04 10:53:39;;;;;;;1.17;1.13;;;;;;;39.04;26.87;99377.66;5135918;27;39038;-80
2021/06/04 10:56:12;;;;;;;0.80;0.80;;;;;;;38.95;27.50;99360.69;5135830;27;41510;-80
2021/06/04 10:58:47;;;;;;;0.77;0.77;;;;;;;38.83;27.03;99371.13;5118179;27;41677;-80
2021/06/04 11:01:18;;;;;;;1.03;1.00;;;;;;;38.64;27.77;99348.59;5136866;27;42196;-82
2021/06/04 11:03:54;;;;;;;0.70;0.70;;;;;;;38.63;27.23;99371.00;5150724;27;40344;-82
2021/06/04 11:06:27;;;;;;;0.43;0.43;;;;;;;38.51;26.65;99362.88;5134198;27;40702;-80
2021/06/04 11:09:08;;;;;;;0.70;0.70;;;;;;;38.40;25.57;99370.25;5135686;27;42806;-81
2021/06/04 11:11:46;;;;;;;0.43;0.43;;;;;;;38.00;27.41;99358.81;5152597;27;42309;-82
2021/06/04 11:14:36;;;;;;;0.87;0.87;;;;;;;37.97;27.81;99360.16;5134948;27;39085;-82
2021/06/04 11:17:21;;;;;;;0.70;0.70;;;;;;;37.96;27.54;99358.47;5123399;27;41060;-82
2021/06/04 11:19:51;;;;;;;0.60;0.60;;;;;;;37.55;27.59;99350.84;5151992;27;43037;-82
2021/06/04 11:22:22;;;;;;;0.50;0.50;;;;;;;37.16;27.87;99355.59;5151369;27;41381;-83
2021/06/04 11:24:56;;;;;;;0.97;0.97;;;;;;;36.93;28.41;99337.34;5150763;27;40879;-82
2021/06/04 11:27:28;;;;;;;0.70;0.70;;;;;;;36.87;28.41;99327.31;5135028;27;41541;-81
2021/06/04 11:29:55;;;;;;;1.23;1.00;;;;;;;36.79;28.40;99313.94;5152138;27;43492;-80
2021/06/04 11:32:27;;;;;;;0.63;0.63;;;;;;;36.65;27.66;99330.84;5139984;27;41513;-81
2021/06/04 11:34:59;;;;;;;0.50;0.50;;;;;;;36.80;27.79;99332.19;5152143;27;38913;-80
2021/06/04 11:37:33;;;;;;;0.57;0.57;;;;;;;37.14;28.58;99325.47;5151295;27;41727;-80
2021/06/04 11:40:08;;;;;;;0.70;0.70;;;;;;;36.95;27.40;99335.16;5150513;27;42776;-80
2021/06/04 11:42:50;;;;;;;0.40;0.40;;;;;;;36.85;27.81;99337.75;5097873;27;40817;-81
2021/06/04 11:45:22;;;;;;;1.67;0.70;;;;;;;36.64;28.50;99331.09;5113233;27;39814;-80
2021/06/04 11:47:50;;;;;;;0.60;0.60;;;;;;;36.15;29.61;99327.25;5114496;27;40807;-80
2021/06/04 11:50:28;;;;;;;0.70;0.70;;;;;;;35.68;30.05;99327.50;5129649;27;42711;-81
2021/06/04 11:53:28;;;;;;;0.50;0.50;;;;;;;35.09;31.33;99306.75;5152230;27;41932;-80
2021/06/04 11:55:55;;;;;;;0.40;0.40;;;;;;;34.56;30.25;99327.88;5113359;27;40401;-82
2021/06/04 11:58:58;;;;;;;1.00;1.00;;;;;;;33.93;30.76;99326.81;5112555;27;41612;-81
2021/06/04 12:01:54;;;;;;;0.70;0.70;;;;;;;33.41;32.51;99291.63;5065987;28;42432;-81